KEWRTNCM

Guest
Details From KEWR - Newark Liberty Intl
To TNCM - St Maarten - Princess Juliana Intl
Flight Number -
Tags decoded
Created
Modified
Stats Distance 1,476 nm / 2,733 km
Max Altitude 0 ft / 0 m
Waypoints 2
Social Downloads 0
Likes 0
Share VATSIM

Download

Looking for another format? Having issues loading an existing format? Contact us
Advertisement - Login to hide

Notes

Requested: KEWR TNCM

Route

KEWR TNCM

ID Type Via Altitude Latitude Longitude Leg Dist Tot Dist Heading (true) Name
O KEWR APT - 0 ft / 0 m 40.69363˚ -74.16856˚ - 0 nm - Newark Liberty Intl
O TNCM APT - 0 ft / 0 m 18.04089˚ -63.10897˚ 1475 nm 1475 nm 154° / 160° St Maarten - Princess Juliana Intl

Altitude Profile

Advertisement - Login to hide

Weather


0- 5 10 15 20 25 30 35+ Temperature / ° C

Clouds and Precipitation
Forecast for 2017-12-12 06:00 UTC. Updated 2 hours ago

Ground ~20,000 ft ~40,000 ft Winds

KEWR

Details ICAO KEWR (EWR)
Name Newark Liberty Intl
Region United States
Timezone America/New_York (UTC-5.0)
Stats Elevation 18 ft / 5 m (AMSL)
Location 40.693633° -74.168565°
Runways 3
Magnetic Variation 12.811° W

METAR

KEWR 120451Z 16003KT 10SM BKN100 OVC150 04/M04 A2994 RMK AO2 SLP139 T00391044 400610000

Decode

TAF

KEWR 120240Z 1203/1306 16005KT P6SM SCT040 BKN090 FM120900 16007KT P6SM VCSH FEW025 BKN040 FM121300 19010G18KT 6SM -RA BKN025 FM121900 24012KT P6SM SCT025 OVC060 FM122300 25016G26KT P6SM BKN050

Decode

Departure Runways

ID Width Length Bearing (true) Bearing (mag) Surface Threshold Offset Overrun Length
04L 150 ft / 46 m 11,009 ft / 3,356 m 25.73° 38.54° Asphalt 2,543 ft / 775 m 600 ft / 183 m
04R 150 ft / 46 m 10,008 ft / 3,051 m 25.73° 38.54° Asphalt 1,191 ft / 363 m 299 ft / 91 m
11 150 ft / 46 m 6,785 ft / 2,068 m 95.01° 107.82° Asphalt 0 ft / 0 m 299 ft / 91 m
22L 150 ft / 46 m 10,008 ft / 3,051 m 205.74° 218.55° Asphalt 1,795 ft / 547 m 801 ft / 244 m
22R 150 ft / 46 m 11,009 ft / 3,356 m 205.74° 218.55° Asphalt 1,424 ft / 434 m 699 ft / 213 m
29 150 ft / 46 m 6,785 ft / 2,068 m 275.02° 287.83° Asphalt 299 ft / 91 m 98 ft / 30 m

TNCM

Details ICAO TNCM (SXM)
Name St Maarten - Princess Juliana Intl
Region Caribbean Netherlands, Aruba, Curaçao, Sint Maarten
Timezone Unknown (UTC+0.0)
Stats Elevation 12 ft / 4 m (AMSL)
Location 18.040889° -63.108974°
Runways 1
Magnetic Variation 14.325° W

METAR

Not found

TAF

TAF TNCM 112320Z 1200/1224 06010KT P6SM FEW020 FM120030 VRB03KT P6SM FEW250 FM120600 08006KT P6SM VCSH FEW250 FM121800 16008KT P6SM VCSH SCT030

Decode

Destination Runways

ID Width Length Bearing (true) Bearing (mag) Surface Threshold Offset Overrun Length
10 148 ft / 45 m 7,464 ft / 2,275 m 81.43° 95.75° Asphalt 0 ft / 0 m 151 ft / 46 m
28 148 ft / 45 m 7,464 ft / 2,275 m 261.44° 275.76° Asphalt 397 ft / 121 m 0 ft / 0 m

Popular Alternatives